Time;durP1;ratioP1;P1;durP2;ratioP2;P2;SDS_P1;SDS_P2;PMS_P1;PMS_P2;Temp;Humidity;BMP_temperature;BMP_pressure;BME280_temperature;BME280_humidity;BME280_pressure;Samples;Min_cycle;Max_cycle;Signal;HPM_P1;HPM_P2
2021/09/08 00:01:59;;;;;;;8.15;6.28;;;;;;;11.18;66.08;102057.61;1790909;80;21052;-81
2021/09/08 00:04:26;;;;;;;10.50;6.90;;;;;;;11.20;66.05;102050.67;1791125;80;21750;-81
2021/09/08 00:06:53;;;;;;;8.03;6.15;;;;;;;11.21;66.00;102047.22;1790980;80;21035;-81
2021/09/08 00:09:19;;;;;;;9.40;6.47;;;;;;;11.23;65.97;102045.97;1791154;80;21515;-81
2021/09/08 00:11:46;;;;;;;10.05;6.60;;;;;;;11.25;65.97;102050.46;1791316;80;21041;-82
2021/09/08 00:14:13;;;;;;;9.00;5.95;;;;;;;11.26;65.93;102048.72;1791112;80;21066;-81
2021/09/08 00:16:39;;;;;;;8.85;6.10;;;;;;;11.26;65.90;102051.35;1791340;78;21734;-81
2021/09/08 00:19:06;;;;;;;11.73;6.58;;;;;;;11.27;65.87;102050.53;1791368;80;21028;-82
2021/09/08 00:21:33;;;;;;;10.85;6.00;;;;;;;11.27;65.83;102050.53;1791131;80;21060;-82
2021/09/08 00:23:59;;;;;;;8.45;6.37;;;;;;;11.28;65.78;102049.28;1791159;80;21017;-82
2021/09/08 00:26:26;;;;;;;10.93;5.95;;;;;;;11.29;65.77;102055.45;1791204;80;20958;-81
2021/09/08 00:28:53;;;;;;;10.90;6.37;;;;;;;11.29;65.84;102056.77;1791235;80;22535;-81
2021/09/08 00:31:19;;;;;;;9.78;5.75;;;;;;;11.27;65.88;102057.13;1791035;80;21165;-81
2021/09/08 00:33:46;;;;;;;8.88;6.20;;;;;;;11.26;65.87;102058.87;1791297;78;21096;-81
2021/09/08 00:36:13;;;;;;;10.03;6.22;;;;;;;11.26;65.89;102061.89;1789202;78;21077;-81
2021/09/08 00:38:39;;;;;;;12.25;6.67;;;;;;;11.25;65.87;102066.27;1788509;80;21467;-81
2021/09/08 00:41:06;;;;;;;8.93;5.90;;;;;;;11.25;65.92;102063.64;1788041;80;21728;-81
2021/09/08 00:43:33;;;;;;;8.13;5.80;;;;;;;11.26;65.95;102068.48;1788096;80;21365;-81
2021/09/08 00:45:59;;;;;;;8.25;5.80;;;;;;;11.26;66.01;102061.89;1788194;80;21053;-81
2021/09/08 00:48:26;;;;;;;10.50;5.85;;;;;;;11.26;66.06;102069.80;1788441;80;20982;-80
2021/09/08 00:50:53;;;;;;;8.95;5.75;;;;;;;11.27;66.09;102061.97;1788946;80;21034;-86
2021/09/08 00:53:20;;;;;;;7.95;5.83;;;;;;;11.29;66.14;102061.61;1789156;80;21740;-86
2021/09/08 00:55:49;;;;;;;11.65;6.10;;;;;;;11.31;66.22;102055.52;1788966;80;21021;-86
2021/09/08 00:58:15;;;;;;;10.43;6.42;;;;;;;11.33;66.31;102055.17;1789524;80;21378;-85
2021/09/08 01:00:42;;;;;;;9.70;6.15;;;;;;;11.33;66.37;102048.15;1789157;80;21210;-83
2021/09/08 01:03:09;;;;;;;10.90;5.62;;;;;;;11.35;66.42;102057.45;1789300;80;21002;-86
2021/09/08 01:05:36;;;;;;;12.25;6.42;;;;;;;11.33;66.54;102050.78;1789364;80;21253;-87
2021/09/08 01:08:02;;;;;;;8.60;6.42;;;;;;;11.31;66.66;102056.41;1788875;80;21523;-82
2021/09/08 01:10:29;;;;;;;9.33;6.05;;;;;;;11.31;66.67;102055.09;1757968;79;21052;-82
2021/09/08 01:12:56;;;;;;;10.13;7.78;;;;;;;11.31;66.75;102048.93;1788420;80;21214;-82
2021/09/08 01:15:23;;;;;;;11.95;7.45;;;;;;;11.30;66.82;102050.67;1788508;80;21053;-83
2021/09/08 01:17:49;;;;;;;18.48;7.28;;;;;;;11.30;66.82;102049.36;1788577;80;21839;-86
2021/09/08 01:20:16;;;;;;;12.15;6.90;;;;;;;11.29;66.86;102045.80;1789157;80;21598;-86
2021/09/08 01:22:50;;;;;;;14.20;7.03;;;;;;;11.29;66.88;102048.44;1789024;80;21547;-86
2021/09/08 01:25:27;;;;;;;13.05;7.83;;;;;;;11.29;66.94;102045.80;1788930;80;21056;-86
2021/09/08 01:27:55;;;;;;;12.25;7.15;;;;;;;11.29;66.99;102046.23;1789018;80;21518;-86
2021/09/08 01:30:23;;;;;;;9.93;7.30;;;;;;;11.31;67.10;102050.25;1788901;80;21751;-86
2021/09/08 01:32:50;;;;;;;9.93;7.40;;;;;;;11.32;67.16;102050.32;1788879;80;21487;-86
2021/09/08 01:35:18;;;;;;;12.37;7.95;;;;;;;11.34;67.26;102051.28;1789321;80;21132;-86
2021/09/08 01:37:49;;;;;;;11.60;7.35;;;;;;;11.37;67.33;102047.87;1793976;80;20993;-81
2021/09/08 01:40:17;;;;;;;14.95;7.90;;;;;;;11.41;67.37;102057.31;1794145;80;21104;-81
2021/09/08 01:42:43;;;;;;;11.40;7.47;;;;;;;11.45;67.42;102052.64;1794077;78;21815;-81
2021/09/08 01:45:14;;;;;;;12.58;7.97;;;;;;;11.50;67.41;102052.81;1794118;80;20982;-81
2021/09/08 01:47:41;;;;;;;11.08;7.97;;;;;;;11.56;67.44;102056.13;1794139;80;21068;-81
2021/09/08 01:50:08;;;;;;;12.33;7.58;;;;;;;11.59;67.42;102045.72;1794403;78;21028;-86
2021/09/08 01:52:37;;;;;;;13.83;7.95;;;;;;;11.63;67.41;102050.28;1794804;80;21018;-86
2021/09/08 01:55:08;;;;;;;11.08;8.08;;;;;;;11.65;67.36;102044.22;1794666;80;21764;-86
2021/09/08 01:57:34;;;;;;;12.98;8.48;;;;;;;11.68;67.40;102047.42;1794703;79;21510;-86
2021/09/08 02:00:01;;;;;;;15.38;8.60;;;;;;;11.71;67.37;102044.00;1765223;80;21072;-81
2021/09/08 02:02:28;;;;;;;13.35;8.75;;;;;;;11.72;67.36;102043.17;1794186;79;21065;-81
2021/09/08 02:04:55;;;;;;;13.83;8.98;;;;;;;11.71;67.33;102042.25;1794079;80;21072;-85
2021/09/08 02:07:21;;;;;;;13.25;8.68;;;;;;;11.71;67.34;102044.89;1794685;80;22345;-81
2021/09/08 02:09:48;;;;;;;12.93;9.15;;;;;;;11.71;67.38;102042.25;1794150;80;21041;-81
2021/09/08 02:12:15;;;;;;;16.40;9.43;;;;;;;11.72;67.43;102044.07;1793988;79;21535;-81
2021/09/08 02:14:41;;;;;;;16.20;9.65;;;;;;;11.71;67.49;102037.41;1793935;80;21193;-81
2021/09/08 02:17:08;;;;;;;14.18;9.63;;;;;;;11.73;67.51;102037.05;1793969;80;21024;-81
2021/09/08 02:19:35;;;;;;;13.83;10.03;;;;;;;11.74;67.51;102038.86;1794705;80;21719;-87
2021/09/08 02:22:01;;;;;;;13.88;9.03;;;;;;;11.75;67.55;102041.57;1794849;80;21488;-87
2021/09/08 02:24:28;;;;;;;16.82;10.05;;;;;;;11.77;67.58;102042.53;1794951;80;21013;-87
2021/09/08 02:26:55;;;;;;;16.17;10.08;;;;;;;11.79;67.61;102050.08;1794308;79;21263;-82
2021/09/08 02:29:21;;;;;;;13.18;9.40;;;;;;;11.81;67.64;102044.45;1794213;78;21048;-81
2021/09/08 02:31:48;;;;;;;13.80;9.58;;;;;;;11.82;67.70;102040.98;1794276;78;22543;-81
2021/09/08 02:34:15;;;;;;;17.62;9.25;;;;;;;11.86;67.72;102045.94;1794100;80;21029;-81
2021/09/08 02:36:41;;;;;;;11.48;9.23;;;;;;;11.90;67.75;102043.04;1790910;80;21045;-86
2021/09/08 02:39:08;;;;;;;12.65;9.35;;;;;;;11.93;67.78;102044.06;1788771;80;21026;-86
2021/09/08 02:41:35;;;;;;;16.70;9.63;;;;;;;11.96;67.78;102044.20;1788952;80;21005;-86
2021/09/08 02:44:02;;;;;;;12.73;10.35;;;;;;;11.99;67.74;102045.66;1788657;80;22435;-85
2021/09/08 02:46:29;;;;;;;15.72;9.50;;;;;;;12.02;67.76;102035.62;1788851;80;21451;-86
2021/09/08 02:48:55;;;;;;;12.65;9.50;;;;;;;12.03;67.77;102034.77;1788932;80;20997;-86
2021/09/08 02:51:23;;;;;;;13.88;9.93;;;;;;;12.05;67.75;102036.66;1757765;80;39101;-86
2021/09/08 02:53:50;;;;;;;14.95;9.98;;;;;;;12.08;67.72;102038.93;1788699;80;21065;-85
2021/09/08 02:56:17;;;;;;;15.63;9.58;;;;;;;12.07;67.70;102039.36;1788407;80;21955;-86
2021/09/08 02:58:43;;;;;;;12.55;9.88;;;;;;;12.08;67.68;102037.61;1788700;80;20974;-86
2021/09/08 03:01:11;;;;;;;14.50;10.18;;;;;;;12.08;67.73;102037.61;1788812;80;21197;-86
2021/09/08 03:03:38;;;;;;;12.10;9.70;;;;;;;12.09;67.74;102032.40;1788347;80;21280;-81
2021/09/08 03:06:05;;;;;;;17.17;10.13;;;;;;;12.11;67.72;102033.78;1788123;80;21151;-81
2021/09/08 03:08:32;;;;;;;12.33;9.85;;;;;;;12.11;67.70;102035.10;1788245;80;22557;-81
2021/09/08 03:10:58;;;;;;;16.87;10.38;;;;;;;12.11;67.71;102030.72;1788059;80;20998;-81
2021/09/08 03:13:25;;;;;;;16.67;10.65;;;;;;;12.12;67.72;102028.54;1788438;80;21005;-81
2021/09/08 03:15:52;;;;;;;13.40;9.53;;;;;;;12.13;67.71;102029.46;1788276;80;21041;-86
2021/09/08 03:18:19;;;;;;;20.30;10.35;;;;;;;12.14;67.71;102026.86;1788884;80;21009;-86
2021/09/08 03:20:45;;;;;;;16.23;10.35;;;;;;;12.15;67.71;102031.31;1788643;80;21774;-85
2021/09/08 03:23:12;;;;;;;15.58;10.72;;;;;;;12.16;67.74;102029.56;1788882;80;21033;-81
2021/09/08 03:25:39;;;;;;;13.62;10.72;;;;;;;12.16;67.72;102028.24;1788145;80;21058;-81
2021/09/08 03:28:06;;;;;;;20.52;10.65;;;;;;;12.16;67.73;102027.84;1788206;80;21007;-81
2021/09/08 03:30:33;;;;;;;16.55;10.75;;;;;;;12.16;67.73;102025.20;1788278;80;21064;-81
2021/09/08 03:33:03;;;;;;;13.95;10.80;;;;;;;12.15;67.73;102020.75;1787993;80;21822;-81
2021/09/08 03:35:29;;;;;;;14.58;11.10;;;;;;;12.15;67.71;102019.86;1787933;80;21054;-81
2021/09/08 03:37:56;;;;;;;13.80;10.90;;;;;;;12.13;67.73;102021.11;1792780;78;21856;-81
2021/09/08 03:40:23;;;;;;;16.87;10.82;;;;;;;12.13;67.78;102013.20;1794305;80;21184;-86
2021/09/08 03:42:49;;;;;;;15.55;10.72;;;;;;;12.12;67.80;102019.30;1793656;80;21056;-80
2021/09/08 03:45:16;;;;;;;18.00;11.08;;;;;;;12.13;67.77;102018.91;1793607;80;21734;-81
2021/09/08 03:47:43;;;;;;;15.68;10.00;;;;;;;12.14;67.82;102016.30;1793906;78;21532;-80
2021/09/08 03:50:10;;;;;;;15.40;10.35;;;;;;;12.16;67.85;102016.36;1794385;80;21089;-86
2021/09/08 03:52:36;;;;;;;16.27;10.48;;;;;;;12.15;67.81;102011.52;1804500;78;21741;-86
2021/09/08 03:55:05;;;;;;;18.45;10.48;;;;;;;12.16;67.80;102009.77;1818896;78;21061;-86
2021/09/08 03:57:31;;;;;;;16.80;9.95;;;;;;;12.16;67.88;102013.33;1819239;78;21910;-85
2021/09/08 03:59:58;;;;;;;17.15;10.78;;;;;;;12.20;67.91;102014.31;1819151;78;21077;-85
2021/09/08 04:02:25;;;;;;;13.38;10.00;;;;;;;12.22;67.95;102006.95;1819032;78;21071;-86
2021/09/08 04:04:52;;;;;;;16.27;10.15;;;;;;;12.24;67.91;102007.91;1796345;78;21041;-87
2021/09/08 04:07:18;;;;;;;17.37;11.18;;;;;;;12.25;67.87;102012.77;1794213;79;22422;-86
2021/09/08 04:09:45;;;;;;;15.70;10.80;;;;;;;12.24;67.87;102009.66;1794518;79;21764;-87
2021/09/08 04:12:11;;;;;;;14.40;10.53;;;;;;;12.24;67.90;102011.88;1794657;80;20985;-86
2021/09/08 04:14:38;;;;;;;19.07;10.53;;;;;;;12.24;67.91;102010.98;1794954;80;21036;-87
2021/09/08 04:17:05;;;;;;;18.15;10.20;;;;;;;12.24;67.90;102006.59;1794457;79;21030;-83
2021/09/08 04:19:31;;;;;;;17.85;9.93;;;;;;;12.27;67.91;102010.19;1794396;80;21550;-84
2021/09/08 04:21:58;;;;;;;21.85;10.05;;;;;;;12.31;67.97;102009.02;1798207;78;22565;-83
2021/09/08 04:24:25;;;;;;;12.78;9.80;;;;;;;12.36;67.99;102010.54;1794572;80;21037;-83
2021/09/08 04:26:51;;;;;;;14.87;9.88;;;;;;;12.42;67.96;102005.48;1794685;80;20990;-82
2021/09/08 04:29:18;;;;;;;17.12;10.20;;;;;;;12.48;67.92;102003.09;1795015;79;21531;-84
2021/09/08 04:31:45;;;;;;;15.43;9.88;;;;;;;12.55;67.90;102002.45;1795108;80;21076;-85
2021/09/08 04:34:11;;;;;;;15.95;9.73;;;;;;;12.66;67.88;102003.28;1795210;80;21888;-88
2021/09/08 04:36:38;;;;;;;13.85;9.05;;;;;;;13.18;68.59;102005.13;1794805;80;21053;-86
2021/09/08 04:39:05;;;;;;;15.60;9.48;;;;;;;14.14;68.73;101999.45;1794849;80;20994;-84
2021/09/08 04:41:32;;;;;;;13.25;8.88;;;;;;;15.22;68.03;101993.63;1794938;80;21044;-87
2021/09/08 04:43:58;;;;;;;16.80;9.28;;;;;;;16.26;67.00;101993.92;1794824;79;21617;-88
2021/09/08 04:46:25;;;;;;;13.30;8.63;;;;;;;17.23;65.99;101990.50;1794728;79;21739;-84
2021/09/08 04:48:51;;;;;;;13.22;8.03;;;;;;;18.18;64.85;101984.45;1794778;80;21002;-86
2021/09/08 04:51:18;;;;;;;11.30;7.90;;;;;;;19.10;63.64;101983.30;1794817;80;21029;-84
2021/09/08 04:53:45;;;;;;;12.40;7.58;;;;;;;20.00;62.36;101990.69;1794251;80;21519;-82
2021/09/08 04:56:11;;;;;;;13.95;7.75;;;;;;;20.78;61.11;101983.48;1794598;80;21153;-85
2021/09/08 04:58:38;;;;;;;11.50;8.05;;;;;;;21.58;59.87;101981.33;1794997;80;21738;-89
2021/09/08 05:01:05;;;;;;;15.08;7.58;;;;;;;22.23;58.42;101980.73;1794982;80;21539;-90
2021/09/08 05:03:33;;;;;;;12.82;7.75;;;;;;;22.85;57.44;101985.37;1794910;80;21029;-88
2021/09/08 05:05:59;;;;;;;16.10;7.67;;;;;;;23.31;56.14;101985.50;1794755;78;21021;-89
2021/09/08 05:08:26;;;;;;;11.20;7.62;;;;;;;23.14;55.11;101988.33;1794956;78;21058;-88
2021/09/08 05:10:53;;;;;;;11.15;7.30;;;;;;;22.67;53.81;101984.12;1794832;80;21799;-90
2021/09/08 05:13:19;;;;;;;10.53;7.05;;;;;;;21.96;53.13;101988.85;1794909;79;21009;-88
2021/09/08 05:15:46;;;;;;;13.88;7.28;;;;;;;21.26;53.09;101990.68;1794736;80;21021;-87
2021/09/08 05:18:12;;;;;;;9.28;7.20;;;;;;;20.64;53.37;101989.23;1794987;80;21028;-89
2021/09/08 05:20:39;;;;;;;16.57;7.17;;;;;;;20.19;53.63;101986.34;1795087;80;21752;-90
2021/09/08 05:23:06;;;;;;;11.93;7.55;;;;;;;19.76;53.78;101991.46;1794986;80;21750;-89
2021/09/08 05:25:32;;;;;;;15.45;7.00;;;;;;;19.44;54.00;101991.16;1794308;80;21710;-83
2021/09/08 05:27:59;;;;;;;14.20;7.50;;;;;;;19.17;54.26;101990.50;1794310;80;21010;-84
2021/09/08 05:30:26;;;;;;;19.15;7.83;;;;;;;18.95;54.42;101995.61;1794109;80;21071;-83
2021/09/08 05:32:52;;;;;;;24.18;8.80;;;;;;;18.76;54.65;101994.48;1794142;78;21673;-82
2021/09/08 05:35:19;;;;;;;25.08;8.83;;;;;;;18.60;54.88;101994.77;1793600;80;21758;-83
2021/09/08 05:37:46;;;;;;;13.80;7.20;;;;;;;18.45;55.06;101998.59;1790615;79;20997;-83
2021/09/08 05:40:13;;;;;;;23.77;7.62;;;;;;;18.27;55.26;101993.91;1788714;79;21081;-86
2021/09/08 05:42:40;;;;;;;17.20;7.35;;;;;;;18.12;55.50;101993.70;1788976;80;21129;-88
2021/09/08 05:45:07;;;;;;;21.17;8.33;;;;;;;17.99;55.90;102000.18;1788364;80;21002;-88
2021/09/08 05:47:33;;;;;;;24.55;8.30;;;;;;;17.88;56.06;101997.35;1788355;80;22544;-88
2021/09/08 05:50:00;;;;;;;22.62;7.85;;;;;;;17.78;56.29;101991.41;1788244;80;21041;-89
2021/09/08 05:52:27;;;;;;;28.23;9.63;;;;;;;17.71;56.51;101996.63;1788411;80;21002;-88
2021/09/08 05:54:53;;;;;;;23.32;7.58;;;;;;;17.64;56.84;101994.28;1788270;80;21049;-88
2021/09/08 05:57:20;;;;;;;21.57;8.03;;;;;;;17.59;56.99;101990.67;1788351;80;21005;-89
2021/09/08 05:59:47;;;;;;;27.00;9.35;;;;;;;17.53;57.19;102000.80;1788456;80;21776;-88
2021/09/08 06:02:14;;;;;;;27.52;10.05;;;;;;;17.51;57.42;101993.19;1789066;80;21504;-88
2021/09/08 06:04:41;;;;;;;26.62;8.75;;;;;;;17.50;57.51;101996.73;1788998;79;20994;-88
2021/09/08 06:07:07;;;;;;;17.85;7.75;;;;;;;17.47;57.62;102000.26;1789014;80;21017;-88
2021/09/08 06:09:34;;;;;;;40.52;9.73;;;;;;;17.47;57.82;101999.34;1789105;80;21013;-87
2021/09/08 06:12:01;;;;;;;30.72;10.08;;;;;;;17.48;58.02;102003.36;1788911;80;21744;-89
2021/09/08 06:14:28;;;;;;;38.30;9.60;;;;;;;17.52;58.18;102001.65;1788397;80;20989;-81
2021/09/08 06:16:55;;;;;;;37.75;9.38;;;;;;;17.56;58.31;102003.92;1788085;80;21006;-81
2021/09/08 06:19:22;;;;;;;36.08;8.93;;;;;;;17.59;58.34;102004.88;1788391;80;21841;-87
2021/09/08 06:21:48;;;;;;;25.08;9.25;;;;;;;17.63;58.48;102002.72;1788986;80;21072;-87
2021/09/08 06:24:15;;;;;;;28.87;9.53;;;;;;;17.67;58.52;101997.00;1788841;80;21739;-87
2021/09/08 06:26:42;;;;;;;22.17;7.53;;;;;;;17.72;58.52;101998.39;1788807;80;21025;-87
2021/09/08 06:29:08;;;;;;;14.93;10.00;;;;;;;17.75;58.53;101994.45;1788708;80;21589;-81
2021/09/08 06:31:35;;;;;;;14.68;8.15;;;;;;;17.78;58.50;101993.19;1788012;78;21021;-81
2021/09/08 06:34:01;;;;;;;15.98;7.45;;;;;;;17.82;58.58;101989.25;1788083;80;21018;-81
2021/09/08 06:36:28;;;;;;;14.95;6.75;;;;;;;17.87;58.64;101994.25;1788048;79;21741;-81
2021/09/08 06:38:55;;;;;;;13.62;7.03;;;;;;;17.94;58.64;102001.88;1790450;78;21594;-81
2021/09/08 06:41:22;;;;;;;14.28;7.05;;;;;;;17.99;58.71;101996.19;1791097;80;21061;-81
2021/09/08 06:43:49;;;;;;;19.12;7.60;;;;;;;18.06;58.67;101997.18;1790979;80;21327;-81
2021/09/08 06:46:16;;;;;;;13.43;7.58;;;;;;;18.12;58.58;101990.59;1790952;80;21033;-81
2021/09/08 06:48:43;;;;;;;10.98;7.45;;;;;;;18.20;58.31;101990.70;1790942;78;21696;-87
2021/09/08 06:51:10;;;;;;;11.30;7.33;;;;;;;18.24;58.20;101985.86;1791486;80;21029;-87
2021/09/08 06:53:37;;;;;;;16.65;7.37;;;;;;;18.32;58.21;101983.28;1791933;80;21025;-88
2021/09/08 06:56:05;;;;;;;14.68;7.83;;;;;;;18.38;58.06;101984.72;1791989;80;21126;-88
2021/09/08 06:58:32;;;;;;;14.45;8.00;;;;;;;18.44;57.88;101979.01;1792049;80;20997;-88
2021/09/08 07:00:59;;;;;;;14.40;7.72;;;;;;;18.52;57.95;101975.55;1791843;80;22552;-88
2021/09/08 07:03:25;;;;;;;11.25;7.30;;;;;;;18.59;57.81;101985.41;1791840;80;20959;-86
2021/09/08 07:05:52;;;;;;;17.45;8.10;;;;;;;18.65;57.65;101978.80;1791972;80;21002;-88
2021/09/08 07:08:19;;;;;;;15.98;8.20;;;;;;;18.72;57.54;101978.45;1792025;80;21022;-88
2021/09/08 07:10:48;;;;;;;12.95;8.45;;;;;;;18.77;57.44;101978.95;1791971;80;21053;-88
2021/09/08 07:13:14;;;;;;;16.48;8.10;;;;;;;18.83;57.35;101980.83;1792071;80;21767;-88
2021/09/08 07:15:41;;;;;;;19.40;8.10;;;;;;;18.90;57.24;101982.69;1791969;80;20998;-88
2021/09/08 07:18:08;;;;;;;15.28;8.33;;;;;;;18.95;57.03;101981.38;1792094;80;21041;-88
2021/09/08 07:20:35;;;;;;;20.15;7.72;;;;;;;18.99;56.91;101981.41;1792024;80;21587;-88
2021/09/08 07:23:01;;;;;;;14.70;7.50;;;;;;;19.06;56.78;101980.16;1791852;80;21026;-88
2021/09/08 07:25:28;;;;;;;21.50;7.70;;;;;;;19.11;56.45;101980.66;1791987;80;21693;-88
2021/09/08 07:27:55;;;;;;;11.70;8.35;;;;;;;19.17;56.31;101979.83;1791694;80;21045;-88
2021/09/08 07:30:22;;;;;;;19.45;7.78;;;;;;;19.23;56.27;101985.20;1791924;80;21068;-88
2021/09/08 07:32:48;;;;;;;15.68;7.20;;;;;;;19.29;55.86;101988.38;1791969;80;21562;-88
2021/09/08 07:35:15;;;;;;;10.15;7.20;;;;;;;19.33;55.67;101984.84;1791513;80;21137;-82
2021/09/08 07:37:42;;;;;;;14.38;8.28;;;;;;;19.37;55.47;101981.30;1792143;79;22434;-88
2021/09/08 07:40:09;;;;;;;9.90;7.08;;;;;;;19.42;55.25;101986.25;1794651;80;21480;-88
2021/09/08 07:42:36;;;;;;;14.38;7.55;;;;;;;19.47;55.10;101982.30;1794688;80;21096;-88
2021/09/08 07:45:05;;;;;;;11.10;7.08;;;;;;;19.53;55.03;101983.23;1794529;80;21492;-89
2021/09/08 07:47:32;;;;;;;12.13;6.53;;;;;;;19.57;54.89;101986.37;1794885;79;21006;-88
2021/09/08 07:49:59;;;;;;;18.55;6.17;;;;;;;19.65;54.82;101989.09;1794751;80;21927;-88
2021/09/08 07:52:26;;;;;;;11.97;6.22;;;;;;;19.71;54.57;101988.27;1794759;80;21005;-88
2021/09/08 07:54:52;;;;;;;18.90;7.50;;;;;;;19.77;54.48;101992.34;1794932;80;21061;-88
2021/09/08 07:57:21;;;;;;;13.62;6.90;;;;;;;19.84;54.22;101993.27;1794579;80;21017;-88
2021/09/08 07:59:49;;;;;;;21.55;7.08;;;;;;;19.88;54.12;101985.30;1794877;80;20990;-88
2021/09/08 08:02:15;;;;;;;21.23;6.83;;;;;;;19.92;53.95;101985.76;1794664;80;21762;-88
2021/09/08 08:04:42;;;;;;;22.22;7.00;;;;;;;19.98;53.98;101989.80;1794219;80;21069;-82
2021/09/08 08:07:09;;;;;;;22.22;7.05;;;;;;;20.05;53.95;101982.72;1793819;80;21052;-82
2021/09/08 08:09:35;;;;;;;11.48;6.20;;;;;;;20.10;53.84;101986.32;1793621;80;21562;-82
2021/09/08 08:12:03;;;;;;;18.87;6.30;;;;;;;20.17;53.64;101987.23;1793796;80;21081;-82
2021/09/08 08:14:29;;;;;;;9.83;5.97;;;;;;;20.22;53.50;101988.60;1793753;80;21733;-82
2021/09/08 08:16:56;;;;;;;9.90;5.97;;;;;;;20.29;53.50;101981.03;1794081;80;22266;-88
2021/09/08 08:19:23;;;;;;;12.80;7.10;;;;;;;20.36;53.50;101989.13;1794458;80;21543;-88
2021/09/08 08:21:50;;;;;;;18.23;11.30;;;;;;;20.43;53.37;101986.46;1794698;80;21155;-88
2021/09/08 08:24:16;;;;;;;12.60;10.18;;;;;;;20.48;53.13;101983.37;1794764;80;20979;-88
2021/09/08 08:26:43;;;;;;;16.60;9.18;;;;;;;20.52;53.04;101982.48;1794708;80;21689;-88
2021/09/08 08:29:10;;;;;;;16.55;7.25;;;;;;;20.56;53.18;101985.16;1794585;80;20986;-88
2021/09/08 08:31:36;;;;;;;15.00;6.60;;;;;;;20.61;52.99;101985.23;1794911;80;21516;-88
2021/09/08 08:34:03;;;;;;;20.50;7.37;;;;;;;20.66;52.89;101986.56;1794749;80;21112;-88
2021/09/08 08:36:30;;;;;;;15.75;6.47;;;;;;;20.72;52.72;101983.89;1794424;80;21040;-87
2021/09/08 08:38:56;;;;;;;17.15;6.22;;;;;;;20.77;52.61;101988.38;1789717;79;21751;-88
2021/09/08 08:41:23;;;;;;;11.93;6.47;;;;;;;20.83;52.49;101986.61;1787705;80;21084;-88
2021/09/08 08:43:50;;;;;;;31.85;8.15;;;;;;;20.89;52.33;101981.26;1787925;80;21010;-88
2021/09/08 08:46:17;;;;;;;19.35;9.53;;;;;;;20.93;52.07;101984.41;1787583;80;21343;-87
2021/09/08 08:48:44;;;;;;;20.12;8.10;;;;;;;20.99;51.84;101984.41;1757467;80;21096;-88
2021/09/08 08:51:10;;;;;;;8.65;6.25;;;;;;;21.04;51.56;101988.42;1788018;80;21740;-88
2021/09/08 08:53:37;;;;;;;20.17;6.85;;;;;;;21.09;51.21;101987.53;1788279;80;21190;-88
2021/09/08 08:56:04;;;;;;;7.17;5.97;;;;;;;21.14;51.02;101983.55;1788156;80;21017;-88
2021/09/08 08:58:31;;;;;;;17.67;8.20;;;;;;;21.18;50.91;101986.66;1788359;80;21432;-88
2021/09/08 09:01:15;;;;;;;10.98;6.15;;;;;;;21.22;50.61;101977.73;1788122;80;21069;-88
2021/09/08 09:03:42;;;;;;;13.75;6.28;;;;;;;21.27;50.66;101988.47;1788566;80;22617;-88
2021/09/08 09:06:09;;;;;;;8.48;5.67;;;;;;;21.32;50.46;101982.22;1788815;80;21064;-88
2021/09/08 09:08:35;;;;;;;11.60;6.00;;;;;;;21.36;50.45;101981.32;1788953;80;21009;-88
2021/09/08 09:11:02;;;;;;;11.28;5.20;;;;;;;21.44;50.59;101977.75;1789023;80;21223;-88
2021/09/08 09:13:33;;;;;;;8.70;5.58;;;;;;;21.51;50.34;101984.48;1789015;80;20993;-88
2021/09/08 09:16:06;;;;;;;7.95;5.58;;;;;;;21.58;50.21;101973.74;1788955;80;22595;-87
2021/09/08 09:18:39;;;;;;;16.97;5.42;;;;;;;21.62;50.04;101981.76;1789168;80;20967;-88
2021/09/08 09:21:11;;;;;;;7.45;5.37;;;;;;;21.68;49.85;101974.20;1789010;80;21037;-87
2021/09/08 09:23:59;;;;;;;10.05;5.60;;;;;;;21.72;49.61;101976.85;1788832;80;21138;-87
2021/09/08 09:26:35;;;;;;;11.57;5.37;;;;;;;21.75;49.27;101969.23;1788941;80;21136;-87
2021/09/08 09:29:21;;;;;;;16.30;6.28;;;;;;;21.76;49.05;101967.02;1787876;80;21760;-87
2021/09/08 09:31:58;;;;;;;11.27;5.43;;;;;;;21.80;49.12;101969.25;1787745;80;21077;-87
2021/09/08 09:34:30;;;;;;;13.20;6.08;;;;;;;21.83;49.13;101972.81;1789201;80;21037;-87
2021/09/08 09:36:58;;;;;;;11.57;5.53;;;;;;;21.91;48.91;101968.31;1789012;80;21018;-87
2021/09/08 09:39:33;;;;;;;7.72;4.97;;;;;;;21.97;48.83;101957.14;1792809;80;21099;-86
2021/09/08 09:42:01;;;;;;;9.85;5.60;;;;;;;22.00;48.63;101954.00;1765839;80;21875;-87
2021/09/08 09:44:35;;;;;;;9.98;6.50;;;;;;;22.03;48.78;101953.97;1794820;80;21045;-87
2021/09/08 09:47:04;;;;;;;9.65;6.00;;;;;;;22.10;49.10;101950.84;1793557;80;21044;-87
2021/09/08 09:49:32;;;;;;;13.72;5.65;;;;;;;22.18;49.14;101947.66;1794387;80;21186;-87
2021/09/08 09:51:58;;;;;;;10.30;6.08;;;;;;;22.24;48.96;101949.00;1794801;79;22030;-88
2021/09/08 09:54:25;;;;;;;13.83;6.80;;;;;;;22.30;48.87;101948.13;1794732;80;22522;-87
2021/09/08 09:56:55;;;;;;;9.48;6.03;;;;;;;22.35;49.06;101946.28;1794742;80;21197;-88
2021/09/08 09:59:22;;;;;;;15.38;6.10;;;;;;;22.41;48.96;101939.57;1794707;80;21272;-87
2021/09/08 10:01:49;;;;;;;15.68;6.20;;;;;;;22.43;48.44;101935.08;1794718;80;21022;-87
2021/09/08 10:04:15;;;;;;;12.73;6.00;;;;;;;22.46;48.66;101940.88;1795001;80;21072;-87
2021/09/08 10:06:43;;;;;;;14.90;7.03;;;;;;;22.49;48.57;101929.67;1794962;79;22990;-87
2021/09/08 10:09:14;;;;;;;9.13;5.78;;;;;;;22.54;48.58;101934.11;1794778;79;21522;-87
2021/09/08 10:11:46;;;;;;;17.27;6.70;;;;;;;22.57;48.41;101934.99;1794850;80;21064;-87
2021/09/08 10:14:18;;;;;;;9.40;7.10;;;;;;;22.58;48.22;101931.84;1794834;80;21017;-87
2021/09/08 10:16:46;;;;;;;9.13;6.05;;;;;;;22.61;48.31;101933.19;1794952;80;21037;-88
2021/09/08 10:19:23;;;;;;;16.07;6.80;;;;;;;22.62;48.00;101931.84;1794715;80;21940;-88
2021/09/08 10:21:52;;;;;;;15.55;6.20;;;;;;;22.62;47.72;101930.50;1791507;80;20986;-88
2021/09/08 10:24:20;;;;;;;10.60;6.83;;;;;;;22.60;47.37;101929.62;1794241;80;21569;-87
2021/09/08 10:26:47;;;;;;;16.52;6.78;;;;;;;22.58;47.26;101931.42;1766255;80;21037;-88
2021/09/08 10:29:15;;;;;;;16.00;7.35;;;;;;;22.58;47.01;101924.72;1794743;80;21001;-87
2021/09/08 10:31:50;;;;;;;16.27;6.53;;;;;;;22.58;47.01;101924.72;1793996;78;21759;-83
2021/09/08 10:34:16;;;;;;;15.03;6.70;;;;;;;22.59;47.12;101924.25;1793812;80;21058;-83
2021/09/08 10:36:44;;;;;;;10.78;6.33;;;;;;;22.63;47.21;101928.23;1794038;80;20986;-82
2021/09/08 10:39:13;;;;;;;24.52;10.80;;;;;;;22.67;47.15;101917.03;1762522;80;21705;-88
2021/09/08 10:41:45;;;;;;;14.20;7.97;;;;;;;22.66;47.01;101917.49;1788702;80;21049;-87
2021/09/08 10:44:13;;;;;;;8.88;6.85;;;;;;;22.66;47.11;101920.64;1786526;79;22067;-88
2021/09/08 10:47:02;;;;;;;17.35;7.30;;;;;;;22.67;46.79;101919.29;1788486;80;21475;-87
2021/09/08 10:49:43;;;;;;;12.13;9.15;;;;;;;22.67;46.99;101916.61;1788720;80;21226;-88
2021/09/08 10:52:11;;;;;;;19.90;6.25;;;;;;;22.71;46.96;101906.28;1788724;80;21567;-87
2021/09/08 10:55:00;;;;;;;11.53;6.33;;;;;;;22.75;46.86;101906.23;1788828;80;21029;-88
2021/09/08 10:57:52;;;;;;;11.70;7.53;;;;;;;22.80;46.84;101905.30;1789336;80;21763;-87
2021/09/08 11:00:34;;;;;;;9.40;7.00;;;;;;;22.85;46.75;101903.48;1788900;80;21006;-88
2021/09/08 11:03:00;;;;;;;11.18;6.90;;;;;;;22.87;46.62;101903.48;1788596;80;21046;-87
2021/09/08 11:05:27;;;;;;;17.42;6.90;;;;;;;22.78;46.17;101878.92;1788109;80;21175;-87
2021/09/08 11:07:54;;;;;;;14.40;6.53;;;;;;;22.78;46.17;101878.92;1788709;80;21127;-86
2021/09/08 11:10:30;;;;;;;15.23;6.67;;;;;;;22.78;46.03;101873.56;1771040;80;21669;-82
2021/09/08 11:12:59;;;;;;;8.88;6.05;;;;;;;22.78;46.03;101869.53;1782508;80;21632;-82
2021/09/08 11:15:35;;;;;;;11.15;6.60;;;;;;;22.78;46.12;101868.66;1782678;80;21328;-82
2021/09/08 11:18:09;;;;;;;10.35;6.60;;;;;;;22.95;46.18;101884.63;1782548;79;21090;-82
2021/09/08 11:20:36;;;;;;;13.03;7.50;;;;;;;22.95;46.18;101884.63;1782220;80;21035;-82